Tobias Selnaes

Chefscout - Stromsgodset
13 Nov 2027
Samstag
Verarbeitung

Persönlichkeit

Anpassungsfähigkeit (18) Ehrgeiz (11) Kontroverse (18) Loyalität (17) Druck (9) Professionalität (2) Fairness (7) Temperament (7)

Profil

Trainerstil Demokratisch
Lizenz Kontinentale C
Entschlossenheit 4
Menschenführung 7
Motivation 4
Disziplin 6
Arbeitszufriedenheit
100%
Ermüdung
0%
Rolle Chefscout
Gehalt 44.7K p/W
Vertrag 14.03.2030

Leistung

Verhalten Gut
Trainingseffektivität
24%
Spielerentwicklung
25%
Verletzungsprävention
25%
Taktische Umsetzung
20%

Letzte Ereignisse

Nahm an einer Scouting-Besprechung teil 7T her
Empfahl ein Transferziel 7T her
Nahm an einer Scouting-Besprechung teil 14T her
Empfahl ein Transferziel 14T her
Nahm an einer Scouting-Besprechung teil 21T her
Empfahl ein Transferziel 21T her
Nahm an einer Scouting-Besprechung teil 28T her
Empfahl ein Transferziel 28T her

Aktuell beobachtet

76
Spieler Verein Status Fähigkeit Vertrauen Beobachtet Zuletzt beobachtet Letzte Stimme
Fillip Jenssen Riise Stabaek Aktiv 103 / 107 72% 1 16.08.2027 Befürworten
Jalen Blesa Rio Ave Aktiv 126 / 125 40% 2 23.03.2027 -
Yousef Salech Cardiff City Aktiv 131 / 130 40% 1 23.03.2027 -
Cameron Archer Southampton Aktiv 124 / 113 40% 1 01.03.2027 -
Mohamed-Ali Cho Hull City Aktiv 128 / 127 40% 1 01.03.2027 -
Brayan Gil Baltika Aktiv 129 / 119 40% 6 31.01.2027 -
Armstrong Oko-Flex Levski Aktiv 123 / 126 40% 5 31.01.2027 -
Andreas Helmersen Bodo/Glimt Aktiv 120 / 108 40% 5 30.01.2027 -
Wandile Duba Maritzburg United Aktiv 108 / 118 40% 3 30.01.2027 -
Aaron Drinan Swindon Town Aktiv 96 / 105 40% 1 30.01.2027 -
Vegard Erlien Tromso Aktiv 132 / 127 40% 6 28.01.2027 -
Chinedu Geoffrey Krylya Sovetov Aktiv 119 / 107 40% 4 26.01.2027 -
Jonathan Okoronkwo Torpedo Moscow Aktiv 105 / 103 40% 2 26.01.2027 -
Ole Sæter Valerenga Aktiv 118 / 128 40% 7 25.01.2027 -
Veljko Birmančević Ferencvaros Aktiv 138 / 142 40% 6 21.01.2027 -
Ali Youssef Apollon Aktiv 116 / 105 40% 1 21.01.2027 -
Edarlyn Reyes Arsenal Tula Aktiv 117 / 114 40% 1 21.01.2027 -
Paul Ngongo Aalesund Aktiv 99 / 101 40% 7 18.01.2027 -
Erik Botheim Viking Aktiv 126 / 114 40% 10 17.01.2027 -
Leandro Godoy CSKA Sofia Aktiv 125 / 111 40% 1 17.01.2027 -
John Yeboah Venezia Aktiv 117 / 114 40% 1 15.01.2027 -
Camilo Durán Bloemfontein Celtic Aktiv 111 / 116 40% 8 14.01.2027 -
Jan Hubocan Ferencvaros Aktiv 124 / 133 40% 1 14.01.2027 -
Ammar Ramadan DAC Dunajska Streda Aktiv 119 / 123 40% 5 11.01.2027 -
Prince Ukachukwu Victoria United Aktiv 108 / 97 40% 1 11.01.2027 -
Ante Aralica Lokomotiv Sofia Aktiv 117 / 109 40% 3 10.01.2027 -
Radek Šiler Podbrezova Aktiv 110 / 108 40% 4 09.01.2027 -
Ola Brynhildsen Bodo/Glimt Aktiv 126 / 120 40% 7 08.01.2027 -
Etiosa Ighodaro Kaizer Chiefs Aktiv 113 / 127 40% 7 07.01.2027 -
Magnus Lankhof Dahlby Stabaek Aktiv 111 / 103 40% 8 04.01.2027 -
Pedro Marques Apollon Aktiv 117 / 114 40% 1 04.01.2027 -
Samuel Kalu Botev Plovdiv Aktiv 123 / 121 40% 5 02.01.2027 -
Dilan Ortíz Ufa Aktiv 102 / 108 40% 2 31.12.2026 -
Petter Nosa Dahl Borussia Mönchengladbach Aktiv 113 / 129 40% 1 29.12.2026 -
Troy Parrott Betis Aktiv 129 / 132 40% 1 27.12.2026 -
Róbert Polievka MTK Budapest Aktiv 113 / 113 40% 3 24.12.2026 -
Matej Trusa DAC Dunajska Streda Aktiv 110 / 103 40% 4 24.12.2026 -
Bahlul Mammadov Inter Aktiv 120 / 128 40% 2 23.12.2026 -
Manu Nieto Andorra Aktiv 108 / 130 40% 3 22.12.2026 -
Jerome Karelse Golden Arrows Aktiv 112 / 113 40% 1 20.12.2026 -
Tenton Yenne Baltika Aktiv 105 / 115 40% 2 18.12.2026 -
Ádin Molnár MTK Budapest Aktiv 117 / 121 40% 2 18.12.2026 -
Dennis Gjengaar Valerenga Aktiv 104 / 121 40% 4 17.12.2026 -
Mathias Grundetjern Stabaek Aktiv 115 / 115 40% 5 16.12.2026 -
Dávid Ďuriš Rosenborg Aktiv 122 / 116 40% 3 10.12.2026 -
Jesper Cornelius IK Start Aktiv 105 / 105 40% 1 08.12.2026 -
Denzel Jubitana Neftchi Aktiv 127 / 114 40% 2 06.12.2026 -
Lebo Mothiba Mamelodi Sundowns Aktiv 115 / 98 40% 1 04.12.2026 -
Breel Embolo Atlanta United FC Aktiv 142 / 121 40% 1 30.11.2026 -
Iqraam Rayners Mamelodi Sundowns Aktiv 138 / 134 40% 4 28.11.2026 -
Manprit Sarkaria Austria Wien Aktiv 108 / 121 40% 2 26.11.2026 -
Sandi Elsnik NK Domzale Aktiv 107 / 106 40% 4 24.11.2026 -
Sam Nombe Milton Keynes Dons Aktiv 102 / 119 40% 2 21.11.2026 -
Liel Abada Charlotte Football Club Aktiv 134 / 135 40% 6 19.11.2026 -
Jalal Abdullai Molde Aktiv 111 / 116 40% 2 16.11.2026 -
Marcus Browne AFC Wimbledon Aktiv 107 / 112 40% 2 06.11.2026 -
Jhon Murillo America de Cali Aktiv 119 / 124 40% 1 01.11.2026 -
Yegor Golenkov Rostov Aktiv 124 / 121 40% 2 30.10.2026 -
Mathias Sauer Sandefjord Aktiv 103 / 104 40% 3 27.10.2026 -
Isaac Matondo Koper Aktiv 114 / 108 40% 1 24.10.2026 -
German Onugkha Rodina Aktiv 121 / 110 40% 1 23.10.2026 -
Mohamed Ofkir Valerenga Aktiv 121 / 99 40% 3 21.10.2026 -
Lucas Ravn-Haren Valerenga Aktiv 102 / 104 40% 2 19.10.2026 -
Sory Diarra Haugesund Aktiv 104 / 111 40% 5 19.10.2026 -
Zakaria Mugeese Odd Aktiv 112 / 112 40% 3 17.10.2026 -
Krisztian Varga Haladas Aktiv 109 / 115 40% 1 11.10.2026 -
Sebastian Holm Mathisen Sandefjord Aktiv 100 / 101 40% 2 25.09.2026 -
Stephen Humphrys Bradford City Aktiv 112 / 104 40% 3 24.09.2026 -
Sveinn Aron Guðjohnsen Vikingur Aktiv 110 / 119 40% 1 23.09.2026 -
Örvar Eggertsson Stjarnan Aktiv 111 / 108 40% 1 18.09.2026 -
Bojan Radulović Huddersfield Town Aktiv 104 / 115 40% 1 17.09.2026 -
Ramiro Ruiz Rodríguez Atlético Tucumán Aktiv 128 / 119 40% 1 16.09.2026 -
Marcos Camarda Santiago Wanderers Aktiv 101 / 100 40% 1 15.09.2026 -
Chuchu Ramírez Nacional Aktiv 140 / 139 40% 1 13.09.2026 -
Oscar Osorio Atletico Venezuela Aktiv 104 / 111 40% 1 11.09.2026 -
Eric Ramírez Carabobo Aktiv 100 / 106 40% 1 08.09.2026 -